Terminal Aerodrome Forecast
Issued by NWS

Home | Current Version | Previous Version | Text Only | Print | Product List | Glossary On
Versions: 1 2 3 4 5 6 7 8 9 10 11 12 13 14 15 16 17 18 19 20 21 22
000
FTUS41 KAKQ 211734
TAFPHF
TAF
KPHF 211734Z 2118/2218 16005KT 6SM BR OVC005
     FM220200 VRB03KT 2SM -SHRA OVC004
     FM220500 09004KT 1SM -RA BR OVC002
     FM221500 10005KT 3SM BR OVC003=

USA.gov is the U.S. government's official web portal to all federal, state and local government web resources and services.